Terminal Aerodrome Forecast
Issued by NWS Blacksburg, VA

Home | Current Version | Previous Version | Text Only | Print | Product List | Glossary On
Versions: 1 2 3 4 5 6 7 8 9 10 11 12 13 14 15 16 17 18 19 20 21 22 23 24 25 26 27 28 29 30 31 32 33 34
000
FTUS41 KRNK 201137 AAB
TAFLYH
TAF AMD
KLYH 201137Z 2012/2112 00000KT P6SM SCT120
     FM201300 00000KT P6SM SCT100
     FM201700 VRB03KT P6SM VCSH FEW090
     FM202300 VRB03KT P6SM SCT080=

USA.gov is the U.S. government's official web portal to all federal, state and local government web resources and services.